Latest Weather Observations for Learmonth

IDW60801

Issued at 11:23 am WST Saturday 29 February 2020 (issued every 10 minutes, with the page automatically refreshed every 10 minutes)

About weather observations | Map of weather stations | Latest weather observations for WA | Other Formats
Station Details ID: 005007 Name: LEARMONTH AIRPORT Lat: -22.24 Lon: 114.10 Height: 5.0 m
Data from the previous 72 hours. | See also: Recent months at Learmonth
Date/Time
WST
Temp
°C
App
Temp
°C
Dew
Point
°C
Rel
Hum
%
Delta-T
°C
Wind Press
QNH
hPa
Press
MSL
hPa
Rain since
9am
mm
Dir  Spd
km/h
Gust
km/h
Spd
kts
Gust
kts
29/11:00am 37.6 37.2 18.1 32 12.8 S 17 24 9 13 1005.4 1005.3 0.0
29/10:30am 35.2 34.4 17.9 36 11.2 S 19 26 10 14 1005.8 1005.7 0.0
29/10:00am 34.4 32.7 17.2 36 11.0 S 22 30 12 16 1006.1 1006.0 0.0
29/09:30am 33.2 31.8 17.0 38 10.3 S 20 30 11 16 1006.2 1006.1 0.0
29/09:00am 31.1 29.4 18.1 46 8.4 SSW 24 32 13 17 1006.2 1006.1 0.0
29/08:30am 29.5 28.3 19.2 54 6.7 SSW 24 32 13 17 1006.2 1006.1 0.0
29/08:00am 27.9 26.2 19.7 61 5.4 SSW 28 35 15 19 1006.1 1006.0 0.0
29/07:30am 26.8 26.1 20.2 67 4.3 SSW 24 32 13 17 1006.1 1006.0 0.0
29/07:00am 25.4 24.8 20.4 74 3.3 SW 24 30 13 16 1006.0 1005.9 0.0
29/06:30am 24.6 24.5 20.7 79 2.6 SSW 22 30 12 16 1005.9 1005.8 0.0
29/06:00am 24.5 23.7 20.8 80 2.4 SW 26 33 14 18 1005.5 1005.4 0.0
29/05:30am 24.4 24.0 20.9 81 2.3 SW 24 32 13 17 1005.5 1005.4 0.0
29/05:00am 24.4 23.9 20.7 80 2.4 SSW 24 32 13 17 1005.2 1005.1 0.0
29/04:30am 24.5 23.9 20.6 79 2.5 SSW 24 32 13 17 1005.3 1005.2 0.0
29/04:00am 24.6 24.4 20.5 78 2.7 SSW 22 30 12 16 1005.3 1005.2 0.0
29/03:30am 24.7 24.4 20.4 77 2.8 SSW 22 30 12 16 1005.3 1005.2 0.0
29/03:00am 24.9 24.6 20.4 76 2.9 SSW 22 28 12 15 1005.4 1005.3 0.0
29/02:30am 25.1 24.9 20.6 76 2.9 SSW 22 30 12 16 1005.5 1005.4 0.0
29/02:00am 25.2 24.9 21.1 78 2.7 SW 24 32 13 17 1005.6 1005.5 0.0
29/01:30am 25.3 25.1 21.2 78 2.7 SSW 24 30 13 16 1005.6 1005.5 0.0
29/01:00am 25.5 25.6 21.2 77 2.8 SSW 22 30 12 16 1005.7 1005.6 0.0
29/12:30am 25.8 26.3 21.2 76 3.0 SSW 20 26 11 14 1005.7 1005.6 0.0
29/12:00am 25.9 26.5 21.3 76 3.1 SW 20 28 11 15 1006.0 1005.9 0.0
 
Date/Time
WST
Temp
°C
App
Temp
°C
Dew
Point
°C
Rel
Hum
%
Delta-T
°C
Wind Press
QNH
hPa
Press
MSL
hPa
Rain since
9am
mm
Dir  Spd
km/h
Gust
km/h
Spd
kts
Gust
kts
28/11:30pm 25.8 25.8 21.7 78 2.7 SW 24 32 13 17 1006.3 1006.2 0.0
28/11:00pm 26.3 27.2 21.5 75 3.2 SW 19 30 10 16 1006.2 1006.1 0.0
28/10:30pm 26.6 27.2 21.4 73 3.5 SW 20 28 11 15 1006.2 1006.1 0.0
28/10:00pm 26.9 27.4 21.2 71 3.8 SW 20 28 11 15 1006.1 1006.0 0.0
28/09:30pm 27.2 27.1 20.8 68 4.2 SW 22 30 12 16 1005.8 1005.7 0.0
28/09:00pm 27.8 26.5 19.8 61 5.2 SW 26 33 14 18 1005.5 1005.4 0.0
28/08:30pm 28.1 27.4 19.6 60 5.5 SW 22 33 12 18 1005.3 1005.2 0.0
28/08:00pm 28.6 26.4 19.5 58 5.9 SW 30 37 16 20 1005.1 1005.0 0.0
28/07:30pm 29.0 27.6 20.4 59 5.7 SW 28 41 15 22 1004.8 1004.7 0.0
28/07:00pm 30.1 29.2 20.6 56 6.3 SW 26 35 14 19 1004.5 1004.4 0.0
28/06:30pm 31.8 30.2 20.7 51 7.4 SW 30 37 16 20 1004.1 1004.0 0.0
28/06:00pm 33.5 31.7 20.3 46 8.8 SW 30 37 16 20 1003.7 1003.6 0.0
28/05:30pm 35.0 32.7 20.2 42 9.9 SSW 32 39 17 21 1003.5 1003.4 0.0
28/05:00pm 36.4 34.7 19.8 37 11.1 SW 28 41 15 22 1003.3 1003.2 0.0
28/04:30pm 38.0 36.9 19.4 33 12.4 SSW 24 33 13 18 1003.3 1003.2 0.0
28/04:00pm 37.9 37.1 19.3 33 12.4 SSW 22 32 12 17 1003.4 1003.3 0.0
28/03:30pm 37.8 36.2 19.2 33 12.4 S 26 35 14 19 1003.6 1003.5 0.0
28/03:00pm 39.2 38.9 19.5 32 13.2 SSW 20 32 11 17 1003.7 1003.6 0.0
28/02:30pm 39.0 37.9 15.4 25 15.0 E 15 24 8 13 1003.9 1003.8 0.0
28/02:00pm 38.3 37.8 16.0 27 14.3 E 13 22 7 12 1004.3 1004.2 0.0
28/01:30pm 38.8 37.4 17.0 27 14.1 E 20 32 11 17 1004.7 1004.6 0.0
28/01:00pm 38.4 38.2 16.7 28 14.0 SE 13 24 7 13 1005.0 1004.9 0.0
28/12:30pm 38.0 37.1 16.9 29 13.6 S 17 30 9 16 1005.3 1005.2 0.0
28/12:00pm 37.8 36.8 16.7 29 13.6 SSE 17 26 9 14 1005.9 1005.8 0.0
28/11:30am 36.6 34.9 15.7 29 13.2 SSE 19 30 10 16 1006.3 1006.2 0.0
28/11:00am 35.2 32.6 16.0 31 12.2 S 24 33 13 18 1006.8 1006.7 0.0
28/10:30am 34.6 33.1 17.8 37 10.9 SSW 22 32 12 17 1007.1 1007.0 0.0
28/10:00am 32.7 30.9 19.6 46 8.7 SSW 28 35 15 19 1007.3 1007.2 0.0
28/09:30am 31.2 30.1 19.5 49 7.7 SSW 24 32 13 17 1007.6 1007.5 0.0
28/09:00am 29.3 28.7 20.5 59 5.8 SSW 24 33 13 18 1007.7 1007.6 0.0
28/08:30am 28.3 27.7 21.3 65 4.7 SSW 26 32 14 17 1007.7 1007.6 0.0
28/08:00am 26.8 26.0 21.6 73 3.5 SSW 28 35 15 19 1007.8 1007.7 0.0
28/07:30am 25.8 25.5 21.9 79 2.6 SSW 26 35 14 19 1007.7 1007.6 0.0
28/07:00am 24.6 25.1 21.9 85 1.8 SW 22 30 12 16 1007.4 1007.3 0.0
28/06:30am 24.0 25.1 21.9 88 1.4 SSW 19 26 10 14 1007.3 1007.2 0.0
28/06:00am 24.1 25.1 21.8 87 1.5 SSW 19 24 10 13 1007.0 1006.9 0.0
28/05:30am 24.3 25.1 21.8 86 1.7 SW 20 24 11 13 1006.7 1006.6 0.0
28/05:00am 24.3 25.1 21.8 86 1.7 SW 20 26 11 14 1006.6 1006.5 0.0
28/04:30am 24.4 25.3 21.9 86 1.7 SW 20 26 11 14 1006.7 1006.6 0.0
28/04:00am 24.5 25.4 22.0 86 1.7 SW 20 26 11 14 1006.9 1006.8 0.0
28/03:30am 24.5 25.4 22.0 86 1.7 SW 20 28 11 15 1006.9 1006.8 0.0
28/03:00am 24.5 25.6 22.0 86 1.7 SSW 19 24 10 13 1007.0 1006.9 0.0
28/02:30am 24.6 25.5 21.9 85 1.8 SSW 20 24 11 13 1006.8 1006.7 0.0
28/02:00am 24.8 25.4 22.1 85 1.8 SSW 22 28 12 15 1006.9 1006.8 0.0
28/01:30am 25.0 26.2 22.1 84 1.9 SSW 19 24 10 13 1007.1 1007.0 0.0
28/01:00am 25.2 26.9 22.3 84 1.9 SSW 17 22 9 12 1007.1 1007.0 0.0
28/12:30am 25.4 25.7 22.3 83 2.1 SW 24 30 13 16 1006.9 1006.8 0.0
28/12:00am 25.5 25.8 22.2 82 2.2 SSW 24 32 13 17 1006.9 1006.8 0.0
 
Date/Time
WST
Temp
°C
App
Temp
°C
Dew
Point
°C
Rel
Hum
%
Delta-T
°C
Wind Press
QNH
hPa
Press
MSL
hPa
Rain since
9am
mm
Dir  Spd
km/h
Gust
km/h
Spd
kts
Gust
kts
27/11:30pm 25.8 26.1 22.3 81 2.3 SW 24 32 13 17 1007.2 1007.1 0.0
27/11:00pm 26.0 26.7 22.3 80 2.5 SSW 22 26 12 14 1007.4 1007.3 0.0
27/10:30pm 26.3 27.3 22.2 78 2.8 SSW 20 28 11 15 1007.5 1007.4 0.0
27/10:00pm 26.7 27.3 22.1 76 3.1 SW 22 28 12 15 1007.3 1007.2 0.0
27/09:30pm 26.9 26.6 21.9 74 3.3 SW 26 33 14 18 1007.3 1007.2 0.0
27/09:00pm 27.2 26.9 21.9 73 3.6 SW 26 33 14 18 1007.1 1007.0 0.0
27/08:30pm 27.4 27.1 21.9 72 3.7 SW 26 35 14 19 1006.8 1006.7 0.0
27/08:00pm 27.8 27.5 21.8 70 4.0 SW 26 37 14 20 1006.5 1006.4 0.0
27/07:30pm 28.5 27.8 21.8 67 4.5 WSW 28 37 15 20 1006.0 1005.9 0.0
27/07:00pm 29.7 28.9 21.6 61 5.5 SW 28 35 15 19 1005.4 1005.3 0.0
27/06:30pm 31.3 30.7 22.0 57 6.3 SW 28 35 15 19 1005.0 1004.9 0.0
27/06:00pm 33.1 32.1 21.9 51 7.6 SW 30 37 16 20 1004.5 1004.4 0.0
27/05:30pm 34.8 32.8 21.1 44 9.3 SW 33 43 18 23 1004.0 1003.9 0.0
27/05:00pm 36.3 33.8 20.9 40 10.5 SW 35 43 19 23 1003.8 1003.7 0.0
27/04:30pm 38.2 36.5 20.5 35 12.0 WSW 30 43 16 23 1003.6 1003.5 0.0
27/04:00pm 38.8 37.8 19.6 32 12.9 SW 24 37 13 20 1003.9 1003.8 0.0
27/03:30pm 40.0 40.3 19.6 30 13.7 S 17 35 9 19 1003.9 1003.8 0.0
27/03:00pm 40.2 38.3 15.7 23 15.7 E 20 26 11 14 1003.9 1003.8 0.0
27/02:30pm 40.6 39.1 16.7 24 15.5 E 20 28 11 15 1004.0 1003.9 0.0
27/02:00pm 39.5 38.0 16.4 25 14.9 ESE 19 33 10 18 1004.2 1004.1 0.0
27/01:30pm 40.4 39.0 16.6 25 15.4 SE 19 32 10 17 1004.6 1004.5 0.0
27/01:00pm 39.1 38.8 18.3 29 13.8 S 17 28 9 15 1005.0 1004.9 0.0
27/12:30pm 37.7 37.6 18.7 33 12.5 SSW 17 30 9 16 1005.5 1005.4 0.0
27/12:00pm 37.4 36.8 18.9 34 12.3 SSW 20 32 11 17 1005.8 1005.7 0.0
27/11:30am 35.8 35.8 19.7 39 10.7 SSW 19 37 10 20 1006.3 1006.2 0.0
27/11:00am 35.2 35.1 20.7 42 9.8 SSW 22 30 12 16 1006.7 1006.6 0.0
27/10:30am 33.7 33.5 21.2 48 8.4 SSW 24 32 13 17 1007.0 1006.9 0.0
27/10:00am 32.6 32.1 21.5 52 7.5 SSW 26 33 14 18 1007.2 1007.1 0.0
27/09:30am 31.6 31.4 22.0 56 6.5 SSW 26 35 14 19 1007.3 1007.2 0.0
27/09:00am 30.3 29.8 22.2 62 5.5 SSW 28 35 15 19 1007.3 1007.2 0.0
27/08:30am 28.6 27.6 21.9 67 4.5 SSW 30 41 16 22 1007.3 1007.2 0.0
27/08:00am 27.4 26.5 22.1 73 3.6 SSW 30 35 16 19 1007.2 1007.1 0.0
27/07:30am 26.5 26.6 22.6 79 2.6 SSW 26 32 14 17 1006.8 1006.7 0.0
27/07:00am 25.5 26.7 22.2 82 2.2 SW 19 24 10 13 1006.6 1006.5 0.0
27/06:30am 24.8 26.7 22.1 85 1.8 SW 15 22 8 12 1006.4 1006.3 0.0
27/06:00am 24.8 26.2 21.9 84 1.9 SW 17 20 9 11 1006.1 1006.0 0.0
27/05:30am 24.7 26.7 21.6 83 2.1 SW 13 19 7 10 1006.0 1005.9 0.0
27/05:00am 24.9 26.7 21.8 83 2.1 SW 15 19 8 10 1005.8 1005.7 0.0
27/04:30am 25.1 26.5 21.8 82 2.2 SW 17 20 9 11 1005.6 1005.5 0.0
27/04:00am 25.3 26.7 21.8 81 2.3 SW 17 24 9 13 1005.8 1005.7 0.0
27/03:30am 25.3 26.1 21.8 81 2.3 SW 20 24 11 13 1005.8 1005.7 0.0
27/03:00am 25.4 26.3 21.9 81 2.3 SW 20 28 11 15 1005.9 1005.8 0.0
27/02:30am 25.5 26.2 21.6 79 2.6 SW 20 30 11 16 1006.3 1006.2 0.0
27/02:00am 25.4 26.0 22.1 82 2.2 SW 22 30 12 16 1006.5 1006.4 0.0
27/01:30am 25.4 26.2 22.5 84 2.0 SW 22 28 12 15 1006.6 1006.5 0.0
27/01:00am 25.6 26.7 22.3 82 2.2 SSW 20 28 11 15 1006.7 1006.6 0.0
27/12:30am 25.9 26.4 22.0 79 2.6 SSW 22 28 12 15 1006.7 1006.6 0.0
27/12:00am 26.3 25.9 21.7 76 3.1 SSW 26 35 14 19 1006.7 1006.6 0.0
 
Date/Time
WST
Temp
°C
App
Temp
°C
Dew
Point
°C
Rel
Hum
%
Delta-T
°C
Wind Press
QNH
hPa
Press
MSL
hPa
Rain since
9am
mm
Dir  Spd
km/h
Gust
km/h
Spd
kts
Gust
kts
26/11:30pm 26.7 27.2 21.2 72 3.6 SSW 20 28 11 15 1006.8 1006.7 0.0
26/11:00pm 26.9 27.5 21.4 72 3.7 SW 20 26 11 14 1006.8 1006.7 0.0
26/10:30pm 27.1 26.3 21.6 72 3.7 SW 28 35 15 19 1006.8 1006.7 0.0
26/10:00pm 27.3 26.5 21.6 71 3.8 SW 28 35 15 19 1006.7 1006.6 0.0
26/09:30pm 27.6 26.8 20.9 67 4.4 SW 26 39 14 21 1006.5 1006.4 0.0
26/09:00pm 27.8 26.4 20.4 64 4.9 SW 28 35 15 19 1006.3 1006.2 0.0
26/08:30pm 28.0 26.2 20.3 63 5.1 SW 30 39 16 21 1006.0 1005.9 0.0
26/08:00pm 28.2 26.9 20.7 63 5.0 SW 28 35 15 19 1005.9 1005.8 0.0
26/07:30pm 29.0 27.2 20.4 59 5.7 SW 30 39 16 21 1005.4 1005.3 0.0
26/07:00pm 29.8 27.2 20.6 57 6.1 SW 35 43 19 23 1005.0 1004.9 0.0
26/06:30pm 31.0 29.1 20.9 55 6.7 WSW 32 43 17 23 1004.9 1004.8 0.0
26/06:00pm 32.4 29.8 20.6 49 7.9 SW 35 46 19 25 1004.6 1004.5 0.0
26/05:30pm 34.8 31.7 19.6 40 10.1 WSW 35 46 19 25 1004.3 1004.2 0.0
26/05:00pm 36.8 33.7 18.8 34 11.9 SW 33 44 18 24 1004.1 1004.0 0.0
26/04:30pm 38.3 34.9 18.2 31 13.2 WSW 33 41 18 22 1003.9 1003.8 0.0
26/04:00pm 39.6 36.1 16.5 25 14.9 SW 30 37 16 20 1004.1 1004.0 0.0
26/03:30pm 40.0 37.1 16.2 24 15.3 SSW 26 39 14 21 1004.2 1004.1 0.0
26/03:00pm 39.7 37.4 16.6 26 15.0 SSW 24 35 13 19 1004.4 1004.3 0.0
26/02:30pm 39.4 36.6 16.3 25 14.9 SW 26 39 14 21 1004.6 1004.5 0.0
26/02:00pm 40.8 38.8 17.5 25 15.3 SSW 24 39 13 21 1004.5 1004.4 0.0
26/01:30pm 39.2 37.2 17.3 27 14.3 SSW 24 35 13 19 1004.8 1004.7 0.0
26/01:00pm 40.1 38.8 18.1 27 14.5 SSW 22 35 12 19 1005.1 1005.0 0.0
26/12:30pm 38.7 37.0 18.0 29 13.6 SSW 24 37 13 20 1005.4 1005.3 0.0
26/12:00pm 39.2 37.8 17.9 28 14.0 SSW 22 33 12 18 1005.8 1005.7 0.0
26/11:30am 38.9 36.8 17.1 28 14.1 SSW 24 37 13 20 1006.1 1006.0 0.0

Other formats

Comma delimited format used in spreadsheet applications
http://www.bom.gov.au/fwo/IDW60801/IDW60801.94302.axf

JavaScript Object Notation format (JSON) in row-major order
http://www.bom.gov.au/fwo/IDW60801/IDW60801.94302.json

Data quality

Most of these data are generated automatically and are frequently updated. Quality checks on data are not normally performed. It is possible for incorrect values to appear. Refer to information at About Latest Weather Observations and please check the disclaimer before using these data.